createdAt,value
2022-08-09T00:00:00.370Z,9
2022-08-09T00:01:01.823Z,9
2022-08-09T00:02:03.926Z,9
2022-08-09T00:03:10.945Z,9
2022-08-09T00:04:11.005Z,9
2022-08-09T00:06:15.191Z,9
2022-08-09T00:06:15.315Z,9
2022-08-09T00:07:13.482Z,8
2022-08-09T00:08:31.809Z,8
2022-08-09T00:09:17.536Z,8
2022-08-09T00:10:20.986Z,8
2022-08-09T00:11:24.098Z,8
2022-08-09T00:12:24.173Z,8
2022-08-09T00:13:25.565Z,8
2022-08-09T00:14:28.055Z,8
2022-08-09T00:15:35.732Z,8
2022-08-09T00:16:36.529Z,8
2022-08-09T00:18:04.307Z,6
2022-08-09T00:18:36.090Z,6
2022-08-09T00:19:38.345Z,6
2022-08-09T00:20:41.597Z,6
2022-08-09T00:21:43.339Z,6
2022-08-09T00:22:44.928Z,7
2022-08-09T00:23:56.829Z,6
2022-08-09T00:24:48.925Z,6
2022-08-09T00:25:51.733Z,8
2022-08-09T00:26:52.516Z,8
2022-08-09T00:27:54.519Z,8
2022-08-09T00:28:56.576Z,8
2022-08-09T00:30:10.544Z,8
2022-08-09T00:31:00.539Z,6
2022-08-09T00:32:03.003Z,8
2022-08-09T00:33:04.566Z,9
2022-08-09T00:34:06.573Z,9
2022-08-09T00:35:08.608Z,6
2022-08-09T00:36:10.546Z,6
2022-08-09T00:37:13.248Z,5
2022-08-09T00:38:15.170Z,5
2022-08-09T00:40:10.096Z,6
2022-08-09T00:40:19.773Z,6
2022-08-09T00:44:09.746Z,6
2022-08-09T00:44:09.752Z,6
2022-08-09T00:45:03.522Z,6
2022-08-09T00:46:02.597Z,6
2022-08-09T00:47:05.913Z,6
2022-08-09T00:48:06.568Z,5
2022-08-09T00:49:08.555Z,5
2022-08-09T00:50:14.396Z,5
2022-08-09T00:51:12.900Z,5
2022-08-09T00:52:16.123Z,5
2022-08-09T00:53:16.571Z,5
2022-08-09T00:54:18.558Z,4
2022-08-09T00:55:33.007Z,5
2022-08-09T00:56:22.562Z,5
2022-08-09T00:57:34.131Z,5
2022-08-09T00:58:27.746Z,4
2022-08-09T00:59:31.693Z,4
2022-08-09T01:00:31.208Z,5
2022-08-09T01:01:32.632Z,5
2022-08-09T01:02:34.767Z,4
2022-08-09T01:03:40.741Z,4
2022-08-09T01:04:38.594Z,5
2022-08-09T01:05:51.150Z,5
2022-08-09T01:06:53.193Z,5
2022-08-09T01:07:57.550Z,5
2022-08-09T01:08:48.945Z,5
2022-08-09T01:09:48.587Z,5
2022-08-09T01:10:51.133Z,5
2022-08-09T01:11:53.042Z,6
2022-08-09T01:12:54.584Z,5
2022-08-09T01:13:59.735Z,5
2022-08-09T01:14:58.599Z,5
2022-08-09T01:16:00.694Z,5
2022-08-09T01:17:02.592Z,5
2022-08-09T01:18:04.896Z,5
2022-08-09T01:19:06.636Z,5
2022-08-09T01:20:08.641Z,5
2022-08-09T01:21:10.623Z,6
2022-08-09T01:22:16.332Z,6
2022-08-09T01:24:00.613Z,6
2022-08-09T01:24:16.601Z,5
2022-08-09T01:25:19.079Z,5
2022-08-09T01:26:20.596Z,5
2022-08-09T01:27:22.633Z,5
2022-08-09T01:28:25.369Z,5
2022-08-09T01:29:27.994Z,5
2022-08-09T01:30:35.327Z,5
2022-08-09T01:32:29.306Z,5
2022-08-09T01:32:33.674Z,5
2022-08-09T01:33:34.643Z,4
2022-08-09T01:34:36.697Z,5
2022-08-09T01:35:39.246Z,5
2022-08-09T01:36:40.638Z,6
2022-08-09T01:37:43.048Z,6
2022-08-09T01:38:46.355Z,6
2022-08-09T01:39:46.761Z,6
2022-08-09T01:40:52.588Z,6
2022-08-09T01:41:53.294Z,6
2022-08-09T01:42:52.639Z,5
2022-08-09T01:43:54.641Z,5
2022-08-09T01:44:56.664Z,5
2022-08-09T01:45:58.701Z,5
2022-08-09T01:47:00.614Z,4
2022-08-09T01:48:05.835Z,4
2022-08-09T01:49:09.344Z,4
2022-08-09T01:50:06.659Z,4
2022-08-09T01:51:08.677Z,4
2022-08-09T01:52:10.647Z,6
2022-08-09T01:53:19.127Z,5
2022-08-09T01:54:14.662Z,4
2022-08-09T01:55:16.655Z,4
2022-08-09T01:56:18.645Z,5
2022-08-09T01:57:20.951Z,5
2022-08-09T01:58:24.068Z,6
2022-08-09T01:59:24.669Z,6
2022-08-09T02:00:34.619Z,6
2022-08-09T02:01:30.743Z,6
2022-08-09T02:02:31.353Z,6
2022-08-09T02:03:33.169Z,6
2022-08-09T02:04:34.721Z,6
2022-08-09T02:05:37.788Z,8
2022-08-09T02:06:38.732Z,6
2022-08-09T02:08:36.247Z,6
2022-08-09T02:08:57.506Z,8
2022-08-09T02:09:44.709Z,8
2022-08-09T02:10:50.772Z,6
2022-08-09T02:11:48.688Z,6
2022-08-09T02:12:50.717Z,6
2022-08-09T02:13:55.606Z,6
2022-08-09T02:14:54.715Z,6
2022-08-09T02:15:56.760Z,8
2022-08-09T02:17:00.234Z,8
2022-08-09T02:18:09.467Z,8
2022-08-09T02:19:02.697Z,8
2022-08-09T02:20:04.824Z,8
2022-08-09T02:21:06.779Z,9
2022-08-09T02:22:08.725Z,10
2022-08-09T02:23:10.918Z,8
2022-08-09T02:24:12.685Z,8
2022-08-09T02:25:15.139Z,9
2022-08-09T02:26:24.749Z,8
2022-08-09T02:27:18.774Z,9
2022-08-09T02:28:20.935Z,9
2022-08-09T02:29:22.723Z,8
2022-08-09T02:30:25.308Z,9
2022-08-09T02:31:26.776Z,9
2022-08-09T02:32:28.710Z,9
2022-08-09T02:33:37.518Z,9
2022-08-09T02:34:41.213Z,8
2022-08-09T02:36:02.216Z,8
2022-08-09T02:36:36.742Z,9
2022-08-09T02:37:38.758Z,9
2022-08-09T02:38:40.941Z,9
2022-08-09T02:39:45.302Z,8
2022-08-09T02:40:44.801Z,8
2022-08-09T02:41:46.711Z,9
2022-08-09T02:42:51.071Z,10
2022-08-09T02:43:54.380Z,10
2022-08-09T02:44:52.762Z,10
2022-08-09T02:45:54.815Z,10
2022-08-09T02:46:56.736Z,9
2022-08-09T02:47:59.683Z,9
2022-08-09T02:49:00.753Z,9
2022-08-09T02:50:02.923Z,8
2022-08-09T02:51:04.778Z,8
2022-08-09T02:52:06.753Z,8
2022-08-09T02:53:08.820Z,8
2022-08-09T02:54:10.786Z,9
2022-08-09T02:55:20.505Z,8
2022-08-09T02:56:14.751Z,8
2022-08-09T02:57:23.041Z,8
2022-08-09T02:58:33.081Z,8
2022-08-09T02:59:26.068Z,8
2022-08-09T03:00:25.785Z,6
2022-08-09T03:01:29.224Z,8
2022-08-09T03:02:26.778Z,8
2022-08-09T03:03:37.385Z,8
2022-08-09T03:04:30.918Z,9
2022-08-09T03:05:34.314Z,8
2022-08-09T03:06:34.771Z,8
2022-08-09T03:07:36.774Z,9
2022-08-09T03:08:39.298Z,9
2022-08-09T03:09:42.753Z,9
2022-08-09T03:10:43.821Z,9
2022-08-09T03:12:06.867Z,9
2022-08-09T03:12:49.421Z,9
2022-08-09T03:13:58.345Z,8
2022-08-09T03:14:50.784Z,8
2022-08-09T03:16:05.069Z,9
2022-08-09T03:16:54.835Z,9
2022-08-09T03:17:58.069Z,9
2022-08-09T03:18:58.819Z,9
2022-08-09T03:20:03.547Z,9
2022-08-09T03:21:02.807Z,8
2022-08-09T03:22:04.784Z,9
2022-08-09T03:23:14.791Z,9
2022-08-09T03:24:09.940Z,9
2022-08-09T03:25:22.074Z,8
2022-08-09T03:26:13.290Z,9
2022-08-09T03:27:17.005Z,9
2022-08-09T03:28:16.825Z,9
2022-08-09T03:29:22.876Z,9
2022-08-09T03:30:28.191Z,9
2022-08-09T03:31:22.912Z,9
2022-08-09T03:32:24.839Z,8
2022-08-09T03:33:26.818Z,9
2022-08-09T03:34:28.804Z,9
2022-08-09T03:35:44.639Z,10
2022-08-09T03:36:32.853Z,9
2022-08-09T03:37:55.091Z,10
2022-08-09T03:38:37.215Z,9
2022-08-09T03:39:38.848Z,10
2022-08-09T03:40:40.817Z,10
2022-08-09T03:41:44.915Z,11
2022-08-09T03:42:44.828Z,10
2022-08-09T03:43:51.943Z,10
2022-08-09T03:44:48.831Z,10
2022-08-09T03:46:03.791Z,11
2022-08-09T03:46:52.879Z,11
2022-08-09T03:47:54.834Z,10
2022-08-09T03:48:56.894Z,11
2022-08-09T03:49:59.038Z,12
2022-08-09T03:51:00.832Z,11
2022-08-09T03:52:03.595Z,11
2022-08-09T03:53:05.175Z,10
2022-08-09T03:54:10.832Z,10
2022-08-09T03:55:09.724Z,10
2022-08-09T03:56:10.867Z,10
2022-08-09T03:57:18.878Z,10
2022-08-09T03:58:17.001Z,11
2022-08-09T03:59:17.356Z,12
2022-08-09T04:00:18.867Z,11
2022-08-09T04:01:20.906Z,11
2022-08-09T04:02:26.354Z,10
2022-08-09T04:03:35.663Z,11
2022-08-09T04:04:26.867Z,11
2022-08-09T04:05:28.857Z,10
2022-08-09T04:06:30.858Z,11
2022-08-09T04:07:33.607Z,12
2022-08-09T04:08:34.868Z,12
2022-08-09T04:09:42.291Z,13
2022-08-09T04:10:38.912Z,13
2022-08-09T04:11:40.957Z,12
2022-08-09T04:12:44.475Z,12
2022-08-09T04:14:37.959Z,12
2022-08-09T04:14:59.278Z,12
2022-08-09T04:16:19.101Z,12
2022-08-09T04:16:50.890Z,12
2022-08-09T04:17:52.946Z,13
2022-08-09T04:18:54.912Z,13
2022-08-09T04:19:56.897Z,13
2022-08-09T04:20:58.884Z,13
2022-08-09T04:22:00.931Z,12
2022-08-09T04:23:02.982Z,12
2022-08-09T04:24:04.898Z,13
2022-08-09T04:25:06.907Z,12
2022-08-09T04:26:08.902Z,12
2022-08-09T04:27:10.928Z,13
2022-08-09T04:28:12.964Z,12
2022-08-09T04:29:15.221Z,12
2022-08-09T04:30:16.920Z,12
2022-08-09T04:31:18.899Z,13
2022-08-09T04:32:23.644Z,13
2022-08-09T04:33:22.939Z,13
2022-08-09T04:34:30.840Z,12
2022-08-09T04:35:26.912Z,13
2022-08-09T04:36:28.920Z,12
2022-08-09T04:37:42.276Z,12
2022-08-09T04:38:32.934Z,12
2022-08-09T04:39:40.480Z,12
2022-08-09T04:40:37.004Z,12
2022-08-09T04:41:43.533Z,12
2022-08-09T04:42:41.010Z,11
2022-08-09T04:43:46.721Z,12
2022-08-09T04:44:49.020Z,11
2022-08-09T04:45:53.362Z,13
2022-08-09T04:46:59.734Z,12
2022-08-09T04:47:59.529Z,13
2022-08-09T04:48:57.789Z,13
2022-08-09T04:49:55.759Z,14
2022-08-09T04:50:56.971Z,14
2022-08-09T04:51:58.963Z,14
2022-08-09T04:53:00.921Z,16
2022-08-09T04:54:03.157Z,14
2022-08-09T04:55:07.229Z,16
2022-08-09T04:56:06.934Z,14
2022-08-09T04:57:09.366Z,17
2022-08-09T04:58:10.994Z,16
2022-08-09T04:59:15.607Z,16
2022-08-09T05:00:16.585Z,14
2022-08-09T05:01:18.705Z,13
2022-08-09T05:02:18.955Z,16
2022-08-09T05:03:30.398Z,14
2022-08-09T05:04:23.087Z,14
2022-08-09T05:05:31.702Z,14
2022-08-09T05:06:28.556Z,16
2022-08-09T05:07:29.402Z,16
2022-08-09T05:08:30.959Z,14
2022-08-09T05:09:42.560Z,14
2022-08-09T05:10:36.670Z,13
2022-08-09T05:11:37.053Z,14
2022-08-09T05:12:39.062Z,14
2022-08-09T05:13:40.959Z,16
2022-08-09T05:14:43.005Z,16
2022-08-09T05:15:47.830Z,17
2022-08-09T05:16:58.609Z,16
2022-08-09T05:18:37.019Z,16
2022-08-09T05:18:58.896Z,16
2022-08-09T05:19:56.533Z,16
2022-08-09T05:20:54.980Z,18
2022-08-09T05:21:56.980Z,17
2022-08-09T05:23:50.704Z,17
2022-08-09T05:24:02.325Z,16
2022-08-09T05:25:03.042Z,18
2022-08-09T05:26:05.023Z,17
2022-08-09T05:27:07.006Z,16
2022-08-09T05:28:09.012Z,-1
2022-08-09T05:29:17.147Z,17
2022-08-09T05:30:13.107Z,17
2022-08-09T05:31:14.992Z,18
2022-08-09T05:32:17.011Z,17
2022-08-09T05:33:18.990Z,19
2022-08-09T05:34:21.071Z,19
2022-08-09T05:35:22.991Z,19
2022-08-09T05:36:26.393Z,18
2022-08-09T05:37:27.003Z,19
2022-08-09T05:38:29.006Z,19
2022-08-09T05:39:35.917Z,19
2022-08-09T05:40:33.015Z,19
2022-08-09T05:41:35.063Z,17
2022-08-09T05:42:37.363Z,18
2022-08-09T05:43:39.020Z,20
2022-08-09T05:44:41.025Z,19
2022-08-09T05:45:43.752Z,19
2022-08-09T05:46:45.043Z,19
2022-08-09T05:47:51.916Z,19
2022-08-09T05:48:58.756Z,19
2022-08-09T05:50:11.168Z,18
2022-08-09T05:51:11.941Z,19
2022-08-09T05:51:56.083Z,18
2022-08-09T05:52:58.064Z,17
2022-08-09T05:54:00.044Z,17
2022-08-09T05:55:02.884Z,18
2022-08-09T05:56:04.055Z,18
2022-08-09T05:57:06.284Z,17
2022-08-09T05:58:08.069Z,18
2022-08-09T05:59:10.626Z,18
2022-08-09T06:00:12.167Z,18
2022-08-09T06:01:15.882Z,19
2022-08-09T06:02:16.876Z,17
2022-08-09T06:03:19.774Z,18
2022-08-09T06:04:23.497Z,18
2022-08-09T06:05:31.403Z,18
2022-08-09T06:06:24.048Z,19
2022-08-09T06:07:26.104Z,19
2022-08-09T06:08:28.049Z,18
2022-08-09T06:09:41.044Z,19
2022-08-09T06:10:32.054Z,19
2022-08-09T06:11:40.673Z,18
2022-08-09T06:12:37.311Z,18
2022-08-09T06:13:39.128Z,19
2022-08-09T06:14:41.273Z,19
2022-08-09T06:15:53.071Z,20
2022-08-09T06:16:54.074Z,18
2022-08-09T06:17:56.117Z,19
2022-08-09T06:18:58.141Z,19
2022-08-09T06:20:00.076Z,19
2022-08-09T06:21:02.323Z,19
2022-08-09T06:22:04.074Z,19
2022-08-09T06:23:06.994Z,20
2022-08-09T06:24:09.163Z,19
2022-08-09T06:25:12.401Z,19
2022-08-09T06:26:13.088Z,19
2022-08-09T06:27:15.424Z,20
2022-08-09T06:28:17.103Z,19
2022-08-09T06:29:19.167Z,19
2022-08-09T06:30:21.408Z,20
2022-08-09T06:31:30.952Z,20
2022-08-09T06:32:52.980Z,20
2022-08-09T06:33:30.751Z,20
2022-08-09T06:34:29.769Z,21
2022-08-09T06:35:35.951Z,20
2022-08-09T06:36:33.114Z,20
2022-08-09T06:37:49.777Z,23
2022-08-09T06:38:37.569Z,23
2022-08-09T06:39:48.948Z,23
2022-08-09T06:40:41.275Z,21
2022-08-09T06:42:08.305Z,20
2022-08-09T06:42:46.704Z,20
2022-08-09T06:43:47.150Z,20
2022-08-09T06:44:51.936Z,21
2022-08-09T06:46:05.643Z,22
2022-08-09T06:46:55.071Z,21
2022-08-09T06:47:57.858Z,23
2022-08-09T06:49:00.262Z,23
2022-08-09T06:50:12.882Z,23
2022-08-09T06:51:05.154Z,24
2022-08-09T06:52:07.879Z,25
2022-08-09T06:53:09.145Z,24
2022-08-09T06:54:14.683Z,21
2022-08-09T06:55:13.749Z,23
2022-08-09T06:56:15.246Z,25
2022-08-09T06:57:19.152Z,24
2022-08-09T06:58:40.998Z,24
2022-08-09T07:00:48.309Z,24
2022-08-09T07:00:48.348Z,23
2022-08-09T07:01:35.834Z,24
2022-08-09T07:02:32.006Z,23
2022-08-09T07:03:33.148Z,24
2022-08-09T07:04:35.143Z,24
2022-08-09T07:05:53.882Z,25
2022-08-09T07:06:39.193Z,25
2022-08-09T07:07:59.174Z,24
2022-08-09T07:08:44.757Z,24
2022-08-09T07:09:53.818Z,24
2022-08-09T07:10:48.186Z,25
2022-08-09T07:11:52.430Z,25
2022-08-09T07:12:57.295Z,25
2022-08-09T07:14:04.591Z,25
2022-08-09T07:14:59.487Z,25
2022-08-09T07:16:40.160Z,24
2022-08-09T07:17:08.156Z,24
2022-08-09T07:18:10.213Z,25
2022-08-09T07:19:10.175Z,24
2022-08-09T07:20:12.181Z,24
2022-08-09T07:21:15.010Z,23
2022-08-09T07:22:18.840Z,23
2022-08-09T07:23:21.535Z,23
2022-08-09T07:24:31.682Z,23
2022-08-09T07:25:25.564Z,23
2022-08-09T07:26:28.172Z,23
2022-08-09T07:27:33.749Z,25
2022-08-09T07:28:34.757Z,23
2022-08-09T07:29:37.839Z,23
2022-08-09T07:30:38.259Z,23
2022-08-09T07:31:44.914Z,23
2022-08-09T07:32:42.415Z,23
2022-08-09T07:33:52.311Z,23
2022-08-09T07:34:46.301Z,24
2022-08-09T07:35:53.272Z,24
2022-08-09T07:36:52.912Z,25
2022-08-09T07:37:59.252Z,25
2022-08-09T07:39:00.737Z,24
2022-08-09T07:40:00.312Z,24
2022-08-09T07:41:11.276Z,24
2022-08-09T07:42:05.068Z,25
2022-08-09T07:43:06.945Z,24
2022-08-09T07:44:08.249Z,24
2022-08-09T07:45:15.126Z,24
2022-08-09T07:46:12.308Z,24
2022-08-09T07:47:15.665Z,24
2022-08-09T07:48:22.716Z,24
2022-08-09T07:49:24.914Z,24
2022-08-09T07:50:32.882Z,25
2022-08-09T07:52:04.155Z,24
2022-08-09T07:52:31.548Z,24
2022-08-09T07:53:36.346Z,25
2022-08-09T07:54:35.233Z,26
2022-08-09T07:55:41.125Z,26
2022-08-09T07:56:45.290Z,26
2022-08-09T07:57:46.770Z,27
2022-08-09T07:58:44.286Z,25
2022-08-09T07:59:52.346Z,25
2022-08-09T08:00:55.907Z,26
2022-08-09T08:01:52.960Z,24
2022-08-09T08:02:55.460Z,24
2022-08-09T08:03:57.256Z,25
2022-08-09T08:04:59.252Z,26
2022-08-09T08:06:01.308Z,25
2022-08-09T08:07:09.260Z,24
2022-08-09T08:08:44.926Z,24
2022-08-09T08:09:18.259Z,24
2022-08-09T08:10:12.392Z,26
2022-08-09T08:12:07.703Z,25
2022-08-09T08:12:25.189Z,26
2022-08-09T08:13:18.303Z,27
2022-08-09T08:14:20.993Z,27
2022-08-09T08:15:22.991Z,25
2022-08-09T08:16:30.113Z,25
2022-08-09T08:17:35.648Z,26
2022-08-09T08:18:28.317Z,26
2022-08-09T08:19:31.312Z,27
2022-08-09T08:20:33.355Z,27
2022-08-09T08:21:34.419Z,28
2022-08-09T08:22:36.628Z,28
2022-08-09T08:23:38.298Z,27
2022-08-09T08:24:41.677Z,28
2022-08-09T08:25:44.852Z,28
2022-08-09T08:26:55.431Z,27
2022-08-09T08:27:46.365Z,27
2022-08-09T08:28:48.300Z,27
2022-08-09T08:29:50.531Z,26
2022-08-09T08:30:52.369Z,29
2022-08-09T08:32:02.809Z,31
2022-08-09T08:32:56.308Z,29
2022-08-09T08:33:58.332Z,31
2022-08-09T08:35:00.302Z,32
2022-08-09T08:36:03.651Z,31
2022-08-09T08:37:04.309Z,28
2022-08-09T08:38:11.712Z,28
2022-08-09T08:39:08.619Z,29
2022-08-09T08:40:10.324Z,29
2022-08-09T08:41:12.380Z,29
2022-08-09T08:42:14.315Z,29
2022-08-09T08:43:16.324Z,28
2022-08-09T08:44:22.905Z,28
2022-08-09T08:45:36.949Z,29
2022-08-09T08:46:35.386Z,28
2022-08-09T08:47:33.321Z,27
2022-08-09T08:48:35.362Z,28
2022-08-09T08:49:38.727Z,28
2022-08-09T08:50:39.339Z,29
2022-08-09T08:51:41.804Z,31
2022-08-09T08:52:51.068Z,32
2022-08-09T08:54:02.797Z,32
2022-08-09T08:54:47.954Z,31
2022-08-09T08:55:52.445Z,32
2022-08-09T08:56:51.376Z,33
2022-08-09T08:57:56.227Z,33
2022-08-09T08:58:55.357Z,32
2022-08-09T08:59:57.474Z,31
2022-08-09T09:00:59.334Z,29
2022-08-09T09:02:01.907Z,28
2022-08-09T09:03:08.468Z,28
2022-08-09T09:04:05.366Z,28
2022-08-09T09:05:10.260Z,27
2022-08-09T09:06:10.261Z,27
2022-08-09T09:07:12.349Z,28
2022-08-09T09:08:29.596Z,27
2022-08-09T09:09:21.382Z,28
2022-08-09T09:10:18.395Z,29
2022-08-09T09:11:20.401Z,28
2022-08-09T09:12:22.376Z,29
2022-08-09T09:13:24.938Z,29
2022-08-09T09:14:26.400Z,30
2022-08-09T09:15:28.978Z,29
2022-08-09T09:16:32.123Z,31
2022-08-09T09:17:48.772Z,32
2022-08-09T09:18:34.397Z,32
2022-08-09T09:19:41.580Z,33
2022-08-09T09:20:38.414Z,33
2022-08-09T09:21:43.026Z,34
2022-08-09T09:22:42.412Z,34
2022-08-09T09:23:48.936Z,34
2022-08-09T09:24:46.451Z,35
2022-08-09T09:26:02.870Z,36
2022-08-09T09:26:50.397Z,36
2022-08-09T09:28:04.803Z,37
2022-08-09T09:29:02.739Z,37
2022-08-09T09:30:25.983Z,39
2022-08-09T09:30:58.475Z,37
2022-08-09T09:32:04.246Z,36
2022-08-09T09:33:02.433Z,33
2022-08-09T09:34:04.463Z,35
2022-08-09T09:35:07.446Z,33
2022-08-09T09:36:11.892Z,34
2022-08-09T09:37:12.928Z,34
2022-08-09T09:38:18.352Z,36
2022-08-09T09:39:14.502Z,36
2022-08-09T09:40:17.660Z,36
2022-08-09T09:41:18.459Z,35
2022-08-09T09:42:20.529Z,34
2022-08-09T09:43:22.431Z,34
2022-08-09T09:44:25.216Z,33
2022-08-09T09:45:29.645Z,33
2022-08-09T09:46:46.347Z,34
2022-08-09T09:47:32.616Z,34
2022-08-09T09:48:33.440Z,35
2022-08-09T09:49:56.579Z,34
2022-08-09T09:50:37.510Z,35
2022-08-09T09:51:39.982Z,34
2022-08-09T09:52:41.494Z,35
2022-08-09T09:53:44.140Z,34
2022-08-09T09:54:48.629Z,36
2022-08-09T09:55:47.448Z,37
2022-08-09T09:56:53.544Z,38
2022-08-09T09:58:01.861Z,39
2022-08-09T09:58:53.576Z,37
2022-08-09T09:59:55.454Z,39
2022-08-09T10:00:58.654Z,40
2022-08-09T10:01:59.481Z,41
2022-08-09T10:03:09.032Z,41
2022-08-09T10:04:06.862Z,41
2022-08-09T10:05:06.585Z,41
2022-08-09T10:06:06.874Z,42
2022-08-09T10:07:09.909Z,44
2022-08-09T10:08:11.227Z,44
2022-08-09T10:09:23.015Z,44
2022-08-09T10:10:14.037Z,44
2022-08-09T10:11:39.734Z,43
2022-08-09T10:12:27.785Z,46
2022-08-09T10:13:23.278Z,47
2022-08-09T10:14:17.873Z,50
2022-08-09T10:15:25.807Z,49
2022-08-09T10:16:55.330Z,46
2022-08-09T10:17:40.879Z,44
2022-08-09T10:18:24.522Z,42
2022-08-09T10:19:27.318Z,40
2022-08-09T10:20:35.985Z,40
2022-08-09T10:21:35.925Z,43
2022-08-09T10:22:36.851Z,44
2022-08-09T10:23:39.689Z,44
2022-08-09T10:24:40.496Z,42
2022-08-09T10:26:04.661Z,39
2022-08-09T10:26:44.226Z,37
2022-08-09T10:27:56.429Z,40
2022-08-09T10:28:48.935Z,40
2022-08-09T10:30:29.744Z,43
2022-08-09T10:32:53.876Z,40
2022-08-09T10:34:09.436Z,40
2022-08-09T10:34:56.909Z,42
2022-08-09T10:36:01.067Z,43
2022-08-09T10:36:59.535Z,43
2022-08-09T10:38:01.089Z,43
2022-08-09T10:39:02.751Z,43
2022-08-09T10:40:03.983Z,42
2022-08-09T10:41:04.987Z,43
2022-08-09T10:42:06.002Z,43
2022-08-09T10:43:08.954Z,46
2022-08-09T10:44:09.600Z,43
2022-08-09T10:45:12.179Z,42
2022-08-09T10:46:19.226Z,42
2022-08-09T10:47:20.685Z,43
2022-08-09T10:48:20.520Z,43
2022-08-09T10:49:17.144Z,44
2022-08-09T10:50:20.909Z,46
2022-08-09T10:51:20.772Z,46
2022-08-09T10:52:21.935Z,44
2022-08-09T10:53:23.808Z,43
2022-08-09T10:54:25.027Z,44
2022-08-09T10:55:26.774Z,41
2022-08-09T10:56:27.959Z,40
2022-08-09T10:57:28.954Z,-1
2022-08-09T10:58:29.939Z,43
2022-08-09T10:59:31.872Z,43
2022-08-09T11:00:32.964Z,42
2022-08-09T11:03:03.414Z,41
2022-08-09T11:03:03.582Z,44
2022-08-09T11:03:47.314Z,48
2022-08-09T11:04:37.055Z,47
2022-08-09T11:05:38.029Z,46
2022-08-09T11:06:38.960Z,47
2022-08-09T11:07:56.764Z,47
2022-08-09T11:08:43.850Z,48
2022-08-09T11:09:47.587Z,50
2022-08-09T11:10:47.246Z,50
2022-08-09T11:11:43.978Z,47
2022-08-09T11:12:44.970Z,49
2022-08-09T11:13:49.740Z,48
2022-08-09T11:14:47.231Z,50
2022-08-09T11:15:51.118Z,50
2022-08-09T11:16:48.991Z,50
2022-08-09T11:17:53.232Z,51
2022-08-09T11:18:50.981Z,54
2022-08-09T11:20:08.224Z,52
2022-08-09T11:20:53.016Z,53
2022-08-09T11:21:54.926Z,52
2022-08-09T11:22:55.341Z,54
2022-08-09T11:23:55.996Z,52
2022-08-09T11:24:57.001Z,54
2022-08-09T11:25:58.001Z,52
2022-08-09T11:26:58.981Z,55
2022-08-09T11:28:03.452Z,54
2022-08-09T11:29:01.042Z,52
2022-08-09T11:30:05.368Z,52
2022-08-09T11:31:03.049Z,54
2022-08-09T11:32:04.002Z,49
2022-08-09T11:33:05.011Z,50
2022-08-09T11:34:06.029Z,51
2022-08-09T11:35:07.047Z,50
2022-08-09T11:36:08.104Z,49
2022-08-09T11:37:09.036Z,49
2022-08-09T11:38:10.020Z,50
2022-08-09T11:39:11.322Z,53
2022-08-09T11:40:12.233Z,52
2022-08-09T11:41:13.333Z,51
2022-08-09T11:42:14.562Z,52
2022-08-09T11:43:15.064Z,55
2022-08-09T11:44:16.021Z,55
2022-08-09T11:45:17.099Z,54
2022-08-09T11:46:18.413Z,54
2022-08-09T11:47:19.037Z,51
2022-08-09T11:48:24.823Z,52
2022-08-09T11:49:27.857Z,55
2022-08-09T11:50:52.881Z,54
2022-08-09T11:52:49.735Z,51
2022-08-09T11:52:49.949Z,54
2022-08-09T11:53:35.495Z,52
2022-08-09T11:54:28.328Z,55
2022-08-09T11:55:35.257Z,54
2022-08-09T11:56:34.227Z,54
2022-08-09T11:57:47.321Z,52
2022-08-09T11:58:32.817Z,52
2022-08-09T11:59:34.021Z,52
2022-08-09T12:00:35.035Z,52
2022-08-09T12:01:38.023Z,52
2022-08-09T12:02:39.741Z,54
2022-08-09T12:03:56.417Z,56
2022-08-09T12:04:40.215Z,55
2022-08-09T12:05:47.127Z,57
2022-08-09T12:06:49.234Z,57
2022-08-09T12:07:46.037Z,57
2022-08-09T12:08:47.117Z,56
2022-08-09T12:09:50.472Z,56
2022-08-09T12:10:49.109Z,58
2022-08-09T12:12:02.812Z,57
2022-08-09T12:12:52.681Z,55
2022-08-09T12:14:08.870Z,52
2022-08-09T12:15:04.650Z,49
2022-08-09T12:15:57.121Z,46
2022-08-09T12:16:58.212Z,44
2022-08-09T12:17:59.273Z,46
2022-08-09T12:19:00.457Z,50
2022-08-09T12:20:01.100Z,50
2022-08-09T12:21:02.627Z,51
2022-08-09T12:22:03.423Z,54
2022-08-09T12:23:07.188Z,52
2022-08-09T12:24:09.364Z,56
2022-08-09T12:25:09.327Z,56
2022-08-09T12:26:10.170Z,56
2022-08-09T12:29:00.511Z,54
2022-08-09T12:29:00.544Z,54
2022-08-09T12:29:30.123Z,54
2022-08-09T12:30:36.011Z,55
2022-08-09T12:31:30.627Z,57
2022-08-09T12:32:19.446Z,58
2022-08-09T12:33:21.332Z,56
2022-08-09T12:34:22.136Z,56
2022-08-09T12:35:23.127Z,57
2022-08-09T12:36:27.853Z,57
2022-08-09T12:37:29.191Z,57
2022-08-09T12:38:29.881Z,58
2022-08-09T12:39:29.361Z,58
2022-08-09T12:40:30.244Z,58
2022-08-09T12:41:38.569Z,60
2022-08-09T12:42:35.302Z,56
2022-08-09T12:44:04.683Z,52
2022-08-09T12:44:39.781Z,48
2022-08-09T12:45:41.190Z,46
2022-08-09T12:46:42.167Z,46
2022-08-09T12:47:44.276Z,46
2022-08-09T12:48:44.193Z,46
2022-08-09T12:49:51.189Z,47
2022-08-09T12:50:48.147Z,47
2022-08-09T12:51:52.994Z,48
2022-08-09T12:53:02.715Z,48
2022-08-09T12:53:55.103Z,49
2022-08-09T12:55:03.069Z,51
2022-08-09T12:56:11.235Z,49
2022-08-09T12:56:58.051Z,50
2022-08-09T12:57:59.255Z,52
2022-08-09T12:59:00.196Z,54
2022-08-09T13:00:02.996Z,54
2022-08-09T13:01:04.369Z,54
2022-08-09T13:02:03.225Z,54
2022-08-09T13:03:04.228Z,52
2022-08-09T13:04:05.191Z,52
2022-08-09T13:05:07.357Z,51
2022-08-09T13:06:13.362Z,55
2022-08-09T13:07:09.184Z,56
2022-08-09T13:08:10.239Z,54
2022-08-09T13:09:11.205Z,54
2022-08-09T13:10:12.225Z,54
2022-08-09T13:11:22.861Z,56
2022-08-09T13:12:14.222Z,56
2022-08-09T13:13:15.215Z,58
2022-08-09T13:14:38.212Z,58
2022-08-09T13:15:18.213Z,59
2022-08-09T13:16:19.217Z,57
2022-08-09T13:17:21.991Z,57
2022-08-09T13:18:21.213Z,56
2022-08-09T13:19:22.871Z,56
2022-08-09T13:20:25.006Z,54
2022-08-09T13:22:34.957Z,51
2022-08-09T13:22:35.013Z,48
2022-08-09T13:24:07.054Z,44
2022-08-09T13:24:44.767Z,44
2022-08-09T13:25:38.599Z,42
2022-08-09T13:26:37.372Z,41
2022-08-09T13:27:39.380Z,39
2022-08-09T13:28:40.846Z,37
2022-08-09T13:30:03.444Z,37
2022-08-09T13:30:49.519Z,37
2022-08-09T13:32:12.709Z,39
2022-08-09T13:32:48.900Z,39
2022-08-09T13:33:53.335Z,37
2022-08-09T13:34:52.863Z,39
2022-08-09T13:36:23.777Z,39
2022-08-09T13:36:56.881Z,40
2022-08-09T13:37:58.261Z,39
2022-08-09T13:39:02.600Z,43
2022-08-09T13:41:21.439Z,43
2022-08-09T13:41:22.074Z,44
2022-08-09T13:42:03.349Z,45
2022-08-09T13:43:05.407Z,44
2022-08-09T13:44:06.260Z,43
2022-08-09T13:45:08.301Z,43
2022-08-09T13:46:44.949Z,42
2022-08-09T13:47:18.456Z,42
2022-08-09T13:48:14.559Z,41
2022-08-09T13:49:17.998Z,41
2022-08-09T13:50:30.232Z,41
2022-08-09T13:51:19.931Z,40
2022-08-09T13:52:21.961Z,40
2022-08-09T13:53:27.090Z,46
2022-08-09T13:54:25.983Z,44
2022-08-09T13:55:28.841Z,43
2022-08-09T13:56:29.905Z,42
2022-08-09T13:57:36.211Z,42
2022-08-09T13:58:33.909Z,52
2022-08-09T13:59:37.223Z,50
2022-08-09T14:00:42.931Z,47
2022-08-09T14:06:41.420Z,42
2022-08-09T14:07:42.928Z,41
2022-08-09T14:08:44.935Z,40
2022-08-09T14:09:46.931Z,40
2022-08-09T14:10:50.565Z,40
2022-08-09T14:11:50.976Z,40
2022-08-09T14:12:52.928Z,37
2022-08-09T14:14:16.722Z,37
2022-08-09T14:14:56.937Z,37
2022-08-09T14:16:07.528Z,37
2022-08-09T14:17:00.941Z,39
2022-08-09T14:18:06.879Z,36
2022-08-09T14:19:04.945Z,36
2022-08-09T14:20:06.978Z,36
2022-08-09T14:21:08.983Z,35
2022-08-09T14:22:11.004Z,35
2022-08-09T14:23:20.178Z,36
2022-08-09T14:24:18.483Z,35
2022-08-09T14:25:16.985Z,35
2022-08-09T14:26:19.010Z,36
2022-08-09T14:27:21.064Z,36
2022-08-09T14:28:22.961Z,36
2022-08-09T14:29:25.308Z,36
2022-08-09T14:30:36.059Z,36
2022-08-09T14:31:35.716Z,36
2022-08-09T14:32:31.698Z,39
2022-08-09T14:33:37.979Z,39
2022-08-09T14:34:34.997Z,40
2022-08-09T14:35:38.842Z,41
2022-08-09T14:36:39.737Z,40
2022-08-09T14:38:01.861Z,41
2022-08-09T14:38:42.982Z,42
2022-08-09T14:39:46.294Z,41
2022-08-09T14:41:01.614Z,42
2022-08-09T14:41:49.082Z,41
2022-08-09T14:42:51.047Z,40
2022-08-09T14:43:53.277Z,40
2022-08-09T14:44:59.236Z,40
2022-08-09T14:46:40.973Z,40
2022-08-09T14:47:09.554Z,39
2022-08-09T14:48:02.040Z,40
2022-08-09T14:49:10.430Z,39
2022-08-09T14:50:11.133Z,40
2022-08-09T14:51:13.078Z,40
2022-08-09T14:52:15.063Z,40
2022-08-09T14:53:17.016Z,40
2022-08-09T14:54:19.020Z,39
2022-08-09T14:55:21.187Z,39
2022-08-09T14:56:26.656Z,40
2022-08-09T14:57:31.709Z,40
2022-08-09T14:58:27.020Z,40